Terminal Aerodrome Forecast
Issued by NWS

Home | Current Version | Previous Version | Text Only | Print | Product List | Glossary On
Versions: 1 2 3 4 5 6 7 8 9 10 11 12 13 14 15 16 17
851
FTUS42 KTAE 060524
TAFVLD
TAF
KVLD 060524Z 0606/0706 19008KT 2SM SHRA VCTS OVC007CB
     FM061700 23010G18KT P6SM SCT025
     FM070000 25007KT P6SM SCT020
     FM070300 28004KT P6SM BKN015=

USA.gov is the U.S. government's official web portal to all federal, state and local government web resources and services.